sensor_id;sensor_type;location;lat;lon;timestamp;temperature;humidity
19966;DHT22;10144;50.874;4.762;2022-12-10T00:01:53;0.50;99.90
19966;DHT22;10144;50.874;4.762;2022-12-10T00:04:20;0.60;99.90
19966;DHT22;10144;50.874;4.762;2022-12-10T00:06:46;0.50;99.90
19966;DHT22;10144;50.874;4.762;2022-12-10T00:09:17;0.40;99.90
19966;DHT22;10144;50.874;4.762;2022-12-10T00:11:43;0.30;99.90
19966;DHT22;10144;50.874;4.762;2022-12-10T00:14:13;0.40;99.90
19966;DHT22;10144;50.874;4.762;2022-12-10T00:16:39;0.30;99.90
19966;DHT22;10144;50.874;4.762;2022-12-10T00:19:08;0.30;99.90
19966;DHT22;10144;50.874;4.762;2022-12-10T00:21:35;0.40;99.90
19966;DHT22;10144;50.874;4.762;2022-12-10T00:24:04;0.40;99.90
19966;DHT22;10144;50.874;4.762;2022-12-10T00:26:37;0.40;99.90
19966;DHT22;10144;50.874;4.762;2022-12-10T00:29:07;0.20;99.90
19966;DHT22;10144;50.874;4.762;2022-12-10T00:31:34;0.10;99.90
19966;DHT22;10144;50.874;4.762;2022-12-10T00:34:04;0.10;99.90
19966;DHT22;10144;50.874;4.762;2022-12-10T00:36:38;0.10;99.90
19966;DHT22;10144;50.874;4.762;2022-12-10T00:39:15;0.20;99.90
19966;DHT22;10144;50.874;4.762;2022-12-10T00:41:41;0.30;99.90
19966;DHT22;10144;50.874;4.762;2022-12-10T00:44:10;0.30;99.90
19966;DHT22;10144;50.874;4.762;2022-12-10T00:46:58;0.20;99.90
19966;DHT22;10144;50.874;4.762;2022-12-10T00:49:24;0.20;99.90
19966;DHT22;10144;50.874;4.762;2022-12-10T00:51:51;0.30;99.90
19966;DHT22;10144;50.874;4.762;2022-12-10T00:54:17;0.40;99.90
19966;DHT22;10144;50.874;4.762;2022-12-10T00:56:42;0.50;99.90
19966;DHT22;10144;50.874;4.762;2022-12-10T00:59:09;0.50;99.90
19966;DHT22;10144;50.874;4.762;2022-12-10T01:01:40;0.50;99.90
19966;DHT22;10144;50.874;4.762;2022-12-10T01:04:15;0.50;99.90
19966;DHT22;10144;50.874;4.762;2022-12-10T01:06:46;0.50;99.90
19966;DHT22;10144;50.874;4.762;2022-12-10T01:09:17;0.70;99.90
19966;DHT22;10144;50.874;4.762;2022-12-10T01:11:44;0.60;99.90
19966;DHT22;10144;50.874;4.762;2022-12-10T01:14:14;0.40;99.90
19966;DHT22;10144;50.874;4.762;2022-12-10T01:16:44;0.10;99.90
19966;DHT22;10144;50.874;4.762;2022-12-10T01:19:13;0.20;99.90
19966;DHT22;10144;50.874;4.762;2022-12-10T01:21:39;0.20;99.90
19966;DHT22;10144;50.874;4.762;2022-12-10T01:24:05;0.10;99.90
19966;DHT22;10144;50.874;4.762;2022-12-10T01:26:33;0.10;99.90
19966;DHT22;10144;50.874;4.762;2022-12-10T01:29:00;-0.10;99.90
19966;DHT22;10144;50.874;4.762;2022-12-10T01:31:36;-0.10;99.90
19966;DHT22;10144;50.874;4.762;2022-12-10T01:34:07;-0.10;99.90
19966;DHT22;10144;50.874;4.762;2022-12-10T01:36:38;-0.10;99.90
19966;DHT22;10144;50.874;4.762;2022-12-10T01:39:09;-0.10;99.90
19966;DHT22;10144;50.874;4.762;2022-12-10T01:41:50;-0.20;99.90
19966;DHT22;10144;50.874;4.762;2022-12-10T01:46:46;0.00;99.90
19966;DHT22;10144;50.874;4.762;2022-12-10T01:49:17;0.00;99.90
19966;DHT22;10144;50.874;4.762;2022-12-10T01:51:44;0.20;99.90
19966;DHT22;10144;50.874;4.762;2022-12-10T01:54:20;0.20;99.90
19966;DHT22;10144;50.874;4.762;2022-12-10T01:56:57;0.10;99.90
19966;DHT22;10144;50.874;4.762;2022-12-10T01:59:23;0.10;99.90
19966;DHT22;10144;50.874;4.762;2022-12-10T02:02:24;0.20;99.90
19966;DHT22;10144;50.874;4.762;2022-12-10T02:08:26;0.20;99.90
19966;DHT22;10144;50.874;4.762;2022-12-10T02:11:18;-0.10;99.90
19966;DHT22;10144;50.874;4.762;2022-12-10T02:14:02;-0.40;99.90
19966;DHT22;10144;50.874;4.762;2022-12-10T02:16:40;-0.50;99.90
19966;DHT22;10144;50.874;4.762;2022-12-10T02:19:21;-0.60;99.90
19966;DHT22;10144;50.874;4.762;2022-12-10T02:21:51;-0.70;99.90
19966;DHT22;10144;50.874;4.762;2022-12-10T02:24:28;-0.60;99.90
19966;DHT22;10144;50.874;4.762;2022-12-10T02:27:15;-0.60;99.90
19966;DHT22;10144;50.874;4.762;2022-12-10T02:29:46;-0.50;99.90
19966;DHT22;10144;50.874;4.762;2022-12-10T02:32:30;-0.40;99.90
19966;DHT22;10144;50.874;4.762;2022-12-10T02:35:03;-0.40;99.90
19966;DHT22;10144;50.874;4.762;2022-12-10T02:37:34;-0.50;99.90
19966;DHT22;10144;50.874;4.762;2022-12-10T02:40:08;-0.60;99.90
19966;DHT22;10144;50.874;4.762;2022-12-10T02:42:39;-0.50;99.90
19966;DHT22;10144;50.874;4.762;2022-12-10T02:45:12;-0.60;99.90
19966;DHT22;10144;50.874;4.762;2022-12-10T02:47:39;-0.60;99.90
19966;DHT22;10144;50.874;4.762;2022-12-10T02:50:12;-0.40;99.90
19966;DHT22;10144;50.874;4.762;2022-12-10T02:52:43;-0.50;99.90
19966;DHT22;10144;50.874;4.762;2022-12-10T02:55:12;-0.60;99.90
19966;DHT22;10144;50.874;4.762;2022-12-10T02:58:06;-0.40;99.90
19966;DHT22;10144;50.874;4.762;2022-12-10T03:00:57;-0.30;99.90
19966;DHT22;10144;50.874;4.762;2022-12-10T03:03:42;-0.30;99.90
19966;DHT22;10144;50.874;4.762;2022-12-10T03:09:04;-0.40;99.90
19966;DHT22;10144;50.874;4.762;2022-12-10T03:11:30;-0.50;99.90
19966;DHT22;10144;50.874;4.762;2022-12-10T03:14:08;-0.40;99.90
19966;DHT22;10144;50.874;4.762;2022-12-10T03:16:51;-0.30;99.90
19966;DHT22;10144;50.874;4.762;2022-12-10T03:19:24;-0.40;99.90
19966;DHT22;10144;50.874;4.762;2022-12-10T03:21:53;-0.40;99.90
19966;DHT22;10144;50.874;4.762;2022-12-10T03:24:20;-0.30;99.90
19966;DHT22;10144;50.874;4.762;2022-12-10T03:26:48;-0.20;99.90
19966;DHT22;10144;50.874;4.762;2022-12-10T03:29:18;-0.20;99.90
19966;DHT22;10144;50.874;4.762;2022-12-10T03:32:18;-0.10;99.90
19966;DHT22;10144;50.874;4.762;2022-12-10T03:34:48;-0.10;99.90
19966;DHT22;10144;50.874;4.762;2022-12-10T03:37:16;-0.30;99.90
19966;DHT22;10144;50.874;4.762;2022-12-10T03:39:43;-0.40;99.90
19966;DHT22;10144;50.874;4.762;2022-12-10T03:42:12;-0.30;99.90
19966;DHT22;10144;50.874;4.762;2022-12-10T03:44:39;-0.20;99.90
19966;DHT22;10144;50.874;4.762;2022-12-10T03:47:13;-0.20;99.90
19966;DHT22;10144;50.874;4.762;2022-12-10T03:49:40;-0.10;99.90
19966;DHT22;10144;50.874;4.762;2022-12-10T03:52:09;-0.10;99.90
19966;DHT22;10144;50.874;4.762;2022-12-10T03:54:38;0.00;99.90
19966;DHT22;10144;50.874;4.762;2022-12-10T03:57:06;0.00;99.90
19966;DHT22;10144;50.874;4.762;2022-12-10T03:59:33;0.00;99.90
19966;DHT22;10144;50.874;4.762;2022-12-10T04:02:02;0.10;99.90
19966;DHT22;10144;50.874;4.762;2022-12-10T04:04:30;0.10;99.90
19966;DHT22;10144;50.874;4.762;2022-12-10T04:06:58;0.10;99.90
19966;DHT22;10144;50.874;4.762;2022-12-10T04:09:25;0.10;99.90
19966;DHT22;10144;50.874;4.762;2022-12-10T04:11:55;0.20;99.90
19966;DHT22;10144;50.874;4.762;2022-12-10T04:14:29;0.00;99.90
19966;DHT22;10144;50.874;4.762;2022-12-10T04:17:17;0.00;99.90
19966;DHT22;10144;50.874;4.762;2022-12-10T04:19:48;0.10;99.90
19966;DHT22;10144;50.874;4.762;2022-12-10T04:22:14;0.10;99.90
19966;DHT22;10144;50.874;4.762;2022-12-10T04:24:59;-0.10;99.90
19966;DHT22;10144;50.874;4.762;2022-12-10T04:27:46;0.00;99.90
19966;DHT22;10144;50.874;4.762;2022-12-10T04:30:18;0.10;99.90
19966;DHT22;10144;50.874;4.762;2022-12-10T04:32:47;0.00;99.90
19966;DHT22;10144;50.874;4.762;2022-12-10T04:35:16;0.20;99.90
19966;DHT22;10144;50.874;4.762;2022-12-10T04:37:42;0.10;99.90
19966;DHT22;10144;50.874;4.762;2022-12-10T04:40:09;0.10;99.90
19966;DHT22;10144;50.874;4.762;2022-12-10T04:42:36;0.20;99.90
19966;DHT22;10144;50.874;4.762;2022-12-10T04:45:03;0.10;99.90
19966;DHT22;10144;50.874;4.762;2022-12-10T04:47:32;0.10;99.90
19966;DHT22;10144;50.874;4.762;2022-12-10T04:49:59;0.10;99.90
19966;DHT22;10144;50.874;4.762;2022-12-10T04:52:25;-0.10;99.90
19966;DHT22;10144;50.874;4.762;2022-12-10T04:54:50;0.00;99.90
19966;DHT22;10144;50.874;4.762;2022-12-10T04:57:19;-0.10;99.90
19966;DHT22;10144;50.874;4.762;2022-12-10T04:59:47;0.00;99.90
19966;DHT22;10144;50.874;4.762;2022-12-10T05:02:12;-0.20;99.90
19966;DHT22;10144;50.874;4.762;2022-12-10T05:04:38;-0.30;99.90
19966;DHT22;10144;50.874;4.762;2022-12-10T05:07:05;-0.20;99.90
19966;DHT22;10144;50.874;4.762;2022-12-10T05:09:32;-0.10;99.90
19966;DHT22;10144;50.874;4.762;2022-12-10T05:11:59;-0.20;99.90
19966;DHT22;10144;50.874;4.762;2022-12-10T05:14:25;-0.20;99.90
19966;DHT22;10144;50.874;4.762;2022-12-10T05:16:59;-0.10;99.90
19966;DHT22;10144;50.874;4.762;2022-12-10T05:19:28;-0.10;99.90
19966;DHT22;10144;50.874;4.762;2022-12-10T05:21:54;-0.10;99.90
19966;DHT22;10144;50.874;4.762;2022-12-10T05:24:41;0.10;99.90
19966;DHT22;10144;50.874;4.762;2022-12-10T05:27:19;-0.20;99.90
19966;DHT22;10144;50.874;4.762;2022-12-10T05:29:45;-0.30;99.90
19966;DHT22;10144;50.874;4.762;2022-12-10T05:32:12;-0.30;99.90
19966;DHT22;10144;50.874;4.762;2022-12-10T05:34:40;-0.40;99.90
19966;DHT22;10144;50.874;4.762;2022-12-10T05:37:08;-0.40;99.90
19966;DHT22;10144;50.874;4.762;2022-12-10T05:39:37;-0.40;99.90
19966;DHT22;10144;50.874;4.762;2022-12-10T05:42:08;-0.40;99.90
19966;DHT22;10144;50.874;4.762;2022-12-10T05:44:34;-0.20;99.90
19966;DHT22;10144;50.874;4.762;2022-12-10T05:47:05;-0.20;99.90
19966;DHT22;10144;50.874;4.762;2022-12-10T05:49:34;-0.10;99.90
19966;DHT22;10144;50.874;4.762;2022-12-10T05:52:03;-0.10;99.90
19966;DHT22;10144;50.874;4.762;2022-12-10T05:54:32;-0.10;99.90
19966;DHT22;10144;50.874;4.762;2022-12-10T05:57:01;-0.20;99.90
19966;DHT22;10144;50.874;4.762;2022-12-10T05:59:30;-0.10;99.90
19966;DHT22;10144;50.874;4.762;2022-12-10T06:01:58;-0.10;99.90
19966;DHT22;10144;50.874;4.762;2022-12-10T06:04:30;-0.10;99.90
19966;DHT22;10144;50.874;4.762;2022-12-10T06:06:59;-0.20;99.90
19966;DHT22;10144;50.874;4.762;2022-12-10T06:09:27;-0.20;99.90
19966;DHT22;10144;50.874;4.762;2022-12-10T06:11:56;-0.20;99.90
19966;DHT22;10144;50.874;4.762;2022-12-10T06:14:32;-0.10;99.90
19966;DHT22;10144;50.874;4.762;2022-12-10T06:16:59;0.00;99.90
19966;DHT22;10144;50.874;4.762;2022-12-10T06:19:27;-0.20;99.90
19966;DHT22;10144;50.874;4.762;2022-12-10T06:21:54;-0.20;99.90
19966;DHT22;10144;50.874;4.762;2022-12-10T06:24:22;-0.10;99.90
19966;DHT22;10144;50.874;4.762;2022-12-10T06:26:52;0.00;99.90
19966;DHT22;10144;50.874;4.762;2022-12-10T06:29:18;-0.10;99.90
19966;DHT22;10144;50.874;4.762;2022-12-10T06:31:46;-0.10;99.90
19966;DHT22;10144;50.874;4.762;2022-12-10T06:34:12;0.00;99.90
19966;DHT22;10144;50.874;4.762;2022-12-10T06:36:38;0.20;99.90
19966;DHT22;10144;50.874;4.762;2022-12-10T06:39:03;0.10;99.90
19966;DHT22;10144;50.874;4.762;2022-12-10T06:41:32;-0.10;99.90
19966;DHT22;10144;50.874;4.762;2022-12-10T06:44:07;-0.10;99.90
19966;DHT22;10144;50.874;4.762;2022-12-10T06:46:36;-0.30;99.90
19966;DHT22;10144;50.874;4.762;2022-12-10T06:49:03;-0.30;99.90
19966;DHT22;10144;50.874;4.762;2022-12-10T06:51:48;-0.30;99.90
19966;DHT22;10144;50.874;4.762;2022-12-10T06:54:16;-0.40;99.90
19966;DHT22;10144;50.874;4.762;2022-12-10T06:56:45;-0.40;99.90
19966;DHT22;10144;50.874;4.762;2022-12-10T06:59:11;-0.40;99.90
19966;DHT22;10144;50.874;4.762;2022-12-10T07:01:40;-0.40;99.90
19966;DHT22;10144;50.874;4.762;2022-12-10T07:04:08;-0.30;99.90
19966;DHT22;10144;50.874;4.762;2022-12-10T07:06:37;-0.40;99.90
19966;DHT22;10144;50.874;4.762;2022-12-10T07:09:05;-0.30;99.90
19966;DHT22;10144;50.874;4.762;2022-12-10T07:11:34;-0.10;99.90
19966;DHT22;10144;50.874;4.762;2022-12-10T07:14:01;-0.10;99.90
19966;DHT22;10144;50.874;4.762;2022-12-10T07:16:29;-0.10;99.90
19966;DHT22;10144;50.874;4.762;2022-12-10T07:18:59;0.00;99.90
19966;DHT22;10144;50.874;4.762;2022-12-10T07:21:28;0.10;99.90
19966;DHT22;10144;50.874;4.762;2022-12-10T07:24:04;0.00;99.90
19966;DHT22;10144;50.874;4.762;2022-12-10T07:26:32;-0.20;99.90
19966;DHT22;10144;50.874;4.762;2022-12-10T07:28:59;-0.30;99.90
19966;DHT22;10144;50.874;4.762;2022-12-10T07:31:32;-0.30;99.90
19966;DHT22;10144;50.874;4.762;2022-12-10T07:34:04;-0.30;99.90
19966;DHT22;10144;50.874;4.762;2022-12-10T07:36:33;-0.40;99.90
19966;DHT22;10144;50.874;4.762;2022-12-10T07:38:59;-0.50;99.90
19966;DHT22;10144;50.874;4.762;2022-12-10T07:41:28;-0.50;99.90
19966;DHT22;10144;50.874;4.762;2022-12-10T07:44:00;-0.40;99.90
19966;DHT22;10144;50.874;4.762;2022-12-10T07:46:30;-0.40;99.90
19966;DHT22;10144;50.874;4.762;2022-12-10T07:49:03;-0.50;99.90
19966;DHT22;10144;50.874;4.762;2022-12-10T07:51:31;-0.50;99.90
19966;DHT22;10144;50.874;4.762;2022-12-10T07:53:59;-0.60;99.90
19966;DHT22;10144;50.874;4.762;2022-12-10T07:56:25;-0.60;99.90
19966;DHT22;10144;50.874;4.762;2022-12-10T07:58:53;-0.60;99.90
19966;DHT22;10144;50.874;4.762;2022-12-10T08:01:23;-0.50;99.90
19966;DHT22;10144;50.874;4.762;2022-12-10T08:03:49;-0.30;99.90
19966;DHT22;10144;50.874;4.762;2022-12-10T08:06:29;-0.30;99.90
19966;DHT22;10144;50.874;4.762;2022-12-10T08:08:58;-0.40;99.90
19966;DHT22;10144;50.874;4.762;2022-12-10T08:11:24;-0.30;99.90
19966;DHT22;10144;50.874;4.762;2022-12-10T08:13:55;-0.30;99.90
19966;DHT22;10144;50.874;4.762;2022-12-10T08:16:39;-0.20;99.90
19966;DHT22;10144;50.874;4.762;2022-12-10T08:19:08;-0.30;99.90
19966;DHT22;10144;50.874;4.762;2022-12-10T08:21:37;-0.20;99.90
19966;DHT22;10144;50.874;4.762;2022-12-10T08:24:06;-0.10;99.90
19966;DHT22;10144;50.874;4.762;2022-12-10T08:26:33;-0.10;99.90
19966;DHT22;10144;50.874;4.762;2022-12-10T08:29:00;0.10;99.90
19966;DHT22;10144;50.874;4.762;2022-12-10T08:31:29;0.10;99.90
19966;DHT22;10144;50.874;4.762;2022-12-10T08:34:01;0.10;99.90
19966;DHT22;10144;50.874;4.762;2022-12-10T08:36:32;0.00;99.90
19966;DHT22;10144;50.874;4.762;2022-12-10T08:38:59;0.10;99.90
19966;DHT22;10144;50.874;4.762;2022-12-10T08:41:24;0.00;99.90
19966;DHT22;10144;50.874;4.762;2022-12-10T08:43:52;0.00;99.90
19966;DHT22;10144;50.874;4.762;2022-12-10T08:46:18;0.10;99.90
19966;DHT22;10144;50.874;4.762;2022-12-10T08:48:45;0.20;99.90
19966;DHT22;10144;50.874;4.762;2022-12-10T08:51:16;0.20;99.90
19966;DHT22;10144;50.874;4.762;2022-12-10T08:53:43;0.20;99.90
19966;DHT22;10144;50.874;4.762;2022-12-10T08:56:10;0.10;99.90
19966;DHT22;10144;50.874;4.762;2022-12-10T08:58:36;0.10;99.90
19966;DHT22;10144;50.874;4.762;2022-12-10T09:01:17;-0.20;99.90
19966;DHT22;10144;50.874;4.762;2022-12-10T09:03:43;-0.20;99.90
19966;DHT22;10144;50.874;4.762;2022-12-10T09:06:12;-0.20;99.90
19966;DHT22;10144;50.874;4.762;2022-12-10T09:08:38;-0.30;99.90
19966;DHT22;10144;50.874;4.762;2022-12-10T09:13:32;-0.20;99.90
19966;DHT22;10144;50.874;4.762;2022-12-10T09:15:58;-0.10;99.90
19966;DHT22;10144;50.874;4.762;2022-12-10T09:18:23;-0.10;99.90
19966;DHT22;10144;50.874;4.762;2022-12-10T09:20:49;0.10;99.90
19966;DHT22;10144;50.874;4.762;2022-12-10T09:23:15;0.10;99.90
19966;DHT22;10144;50.874;4.762;2022-12-10T09:25:40;0.00;99.90
19966;DHT22;10144;50.874;4.762;2022-12-10T09:28:06;0.00;99.90
19966;DHT22;10144;50.874;4.762;2022-12-10T09:30:31;0.10;99.90
19966;DHT22;10144;50.874;4.762;2022-12-10T09:32:57;0.10;99.90
19966;DHT22;10144;50.874;4.762;2022-12-10T09:35:23;0.10;99.90
19966;DHT22;10144;50.874;4.762;2022-12-10T09:37:49;-0.10;99.90
19966;DHT22;10144;50.874;4.762;2022-12-10T09:40:24;-0.20;99.90
19966;DHT22;10144;50.874;4.762;2022-12-10T09:42:56;-0.20;99.90
19966;DHT22;10144;50.874;4.762;2022-12-10T09:45:31;-0.20;99.90
19966;DHT22;10144;50.874;4.762;2022-12-10T09:51:41;0.00;99.90
19966;DHT22;10144;50.874;4.762;2022-12-10T09:53:48;0.00;99.90
19966;DHT22;10144;50.874;4.762;2022-12-10T09:56:22;0.20;99.90
19966;DHT22;10144;50.874;4.762;2022-12-10T09:58:48;0.30;99.90
19966;DHT22;10144;50.874;4.762;2022-12-10T10:01:16;0.20;99.90
19966;DHT22;10144;50.874;4.762;2022-12-10T10:03:43;0.30;99.90
19966;DHT22;10144;50.874;4.762;2022-12-10T10:06:12;0.50;99.90
19966;DHT22;10144;50.874;4.762;2022-12-10T10:08:44;0.50;99.90
19966;DHT22;10144;50.874;4.762;2022-12-10T10:11:20;0.60;99.90
19966;DHT22;10144;50.874;4.762;2022-12-10T10:13:59;0.50;99.90
19966;DHT22;10144;50.874;4.762;2022-12-10T10:16:36;0.70;99.90
19966;DHT22;10144;50.874;4.762;2022-12-10T10:19:13;0.70;99.90
19966;DHT22;10144;50.874;4.762;2022-12-10T10:21:42;0.60;99.90
19966;DHT22;10144;50.874;4.762;2022-12-10T10:24:14;0.60;99.90
19966;DHT22;10144;50.874;4.762;2022-12-10T10:26:41;0.30;99.90
19966;DHT22;10144;50.874;4.762;2022-12-10T10:29:10;0.30;99.90
19966;DHT22;10144;50.874;4.762;2022-12-10T10:31:39;0.50;99.90
19966;DHT22;10144;50.874;4.762;2022-12-10T10:34:21;0.60;99.90
19966;DHT22;10144;50.874;4.762;2022-12-10T10:36:48;0.70;99.90
19966;DHT22;10144;50.874;4.762;2022-12-10T10:39:29;0.80;99.90
19966;DHT22;10144;50.874;4.762;2022-12-10T10:41:57;1.00;99.90
19966;DHT22;10144;50.874;4.762;2022-12-10T10:44:33;1.20;99.90
19966;DHT22;10144;50.874;4.762;2022-12-10T10:46:59;1.20;99.90
19966;DHT22;10144;50.874;4.762;2022-12-10T10:49:32;1.10;99.90
19966;DHT22;10144;50.874;4.762;2022-12-10T10:52:04;1.10;99.90
19966;DHT22;10144;50.874;4.762;2022-12-10T10:54:38;1.10;99.90
19966;DHT22;10144;50.874;4.762;2022-12-10T10:57:32;0.80;99.90
19966;DHT22;10144;50.874;4.762;2022-12-10T11:00:18;0.70;99.90
19966;DHT22;10144;50.874;4.762;2022-12-10T11:02:45;0.90;99.90
19966;DHT22;10144;50.874;4.762;2022-12-10T11:05:26;0.80;99.90
19966;DHT22;10144;50.874;4.762;2022-12-10T11:08:02;0.70;99.90
19966;DHT22;10144;50.874;4.762;2022-12-10T11:10:29;0.80;99.90
19966;DHT22;10144;50.874;4.762;2022-12-10T11:13:04;0.90;99.90
19966;DHT22;10144;50.874;4.762;2022-12-10T11:15:36;1.20;99.90
19966;DHT22;10144;50.874;4.762;2022-12-10T11:18:24;0.90;99.90
19966;DHT22;10144;50.874;4.762;2022-12-10T11:23:45;1.00;99.90
19966;DHT22;10144;50.874;4.762;2022-12-10T11:29:02;1.00;99.90
19966;DHT22;10144;50.874;4.762;2022-12-10T11:35:10;1.00;99.90
19966;DHT22;10144;50.874;4.762;2022-12-10T11:37:53;0.90;99.90
19966;DHT22;10144;50.874;4.762;2022-12-10T11:49:14;0.70;99.90
19966;DHT22;10144;50.874;4.762;2022-12-10T11:56:42;1.10;99.90
19966;DHT22;10144;50.874;4.762;2022-12-10T12:01:55;0.90;99.90
19966;DHT22;10144;50.874;4.762;2022-12-10T12:07:18;1.20;99.90
19966;DHT22;10144;50.874;4.762;2022-12-10T12:13:25;1.60;99.90
19966;DHT22;10144;50.874;4.762;2022-12-10T12:18:40;1.50;99.90
19966;DHT22;10144;50.874;4.762;2022-12-10T12:21:10;1.40;99.90
19966;DHT22;10144;50.874;4.762;2022-12-10T12:31:45;1.90;99.90
19966;DHT22;10144;50.874;4.762;2022-12-10T12:34:25;2.10;99.90
19966;DHT22;10144;50.874;4.762;2022-12-10T12:36:54;2.30;99.90
19966;DHT22;10144;50.874;4.762;2022-12-10T12:39:49;2.60;99.90
19966;DHT22;10144;50.874;4.762;2022-12-10T12:49:55;2.70;99.90
19966;DHT22;10144;50.874;4.762;2022-12-10T12:52:29;2.70;99.90
19966;DHT22;10144;50.874;4.762;2022-12-10T12:55:04;2.50;99.90
19966;DHT22;10144;50.874;4.762;2022-12-10T12:57:36;2.50;99.90
19966;DHT22;10144;50.874;4.762;2022-12-10T13:00:08;2.50;99.90
19966;DHT22;10144;50.874;4.762;2022-12-10T13:05:35;2.60;99.90
19966;DHT22;10144;50.874;4.762;2022-12-10T13:13:31;2.60;99.90
19966;DHT22;10144;50.874;4.762;2022-12-10T13:22:09;2.30;99.90
19966;DHT22;10144;50.874;4.762;2022-12-10T13:27:17;2.10;99.90
19966;DHT22;10144;50.874;4.762;2022-12-10T13:32:46;2.20;99.90
19966;DHT22;10144;50.874;4.762;2022-12-10T13:40:41;2.40;99.90
19966;DHT22;10144;50.874;4.762;2022-12-10T13:43:36;2.50;99.90
19966;DHT22;10144;50.874;4.762;2022-12-10T13:46:50;2.30;99.90
19966;DHT22;10144;50.874;4.762;2022-12-10T13:49:19;2.40;99.90
19966;DHT22;10144;50.874;4.762;2022-12-10T13:51:55;2.50;99.90
19966;DHT22;10144;50.874;4.762;2022-12-10T14:00:23;2.30;99.90
19966;DHT22;10144;50.874;4.762;2022-12-10T14:08:28;2.40;99.90
19966;DHT22;10144;50.874;4.762;2022-12-10T14:10:56;2.10;99.90
19966;DHT22;10144;50.874;4.762;2022-12-10T14:13:31;1.90;99.90
19966;DHT22;10144;50.874;4.762;2022-12-10T14:16:00;1.90;99.90
19966;DHT22;10144;50.874;4.762;2022-12-10T14:18:28;1.80;99.90
19966;DHT22;10144;50.874;4.762;2022-12-10T14:20:55;1.70;99.90
19966;DHT22;10144;50.874;4.762;2022-12-10T14:23:29;1.90;99.90
19966;DHT22;10144;50.874;4.762;2022-12-10T14:25:58;1.80;99.90
19966;DHT22;10144;50.874;4.762;2022-12-10T14:28:24;1.60;99.90
19966;DHT22;10144;50.874;4.762;2022-12-10T14:30:50;1.70;99.90
19966;DHT22;10144;50.874;4.762;2022-12-10T14:33:19;1.70;99.90
19966;DHT22;10144;50.874;4.762;2022-12-10T14:35:49;1.70;99.90
19966;DHT22;10144;50.874;4.762;2022-12-10T14:38:41;1.60;99.90
19966;DHT22;10144;50.874;4.762;2022-12-10T14:41:10;1.70;99.90
19966;DHT22;10144;50.874;4.762;2022-12-10T14:43:39;1.80;99.90
19966;DHT22;10144;50.874;4.762;2022-12-10T14:46:13;1.90;99.90
19966;DHT22;10144;50.874;4.762;2022-12-10T14:48:40;2.10;99.90
19966;DHT22;10144;50.874;4.762;2022-12-10T14:51:17;2.30;99.90
19966;DHT22;10144;50.874;4.762;2022-12-10T14:53:44;2.20;99.90
19966;DHT22;10144;50.874;4.762;2022-12-10T14:56:25;2.20;99.90
19966;DHT22;10144;50.874;4.762;2022-12-10T14:59:15;2.00;99.90
19966;DHT22;10144;50.874;4.762;2022-12-10T15:01:47;2.00;99.90
19966;DHT22;10144;50.874;4.762;2022-12-10T15:04:19;2.00;99.90
19966;DHT22;10144;50.874;4.762;2022-12-10T15:06:46;2.10;99.90
19966;DHT22;10144;50.874;4.762;2022-12-10T15:09:20;2.00;99.90
19966;DHT22;10144;50.874;4.762;2022-12-10T15:11:58;1.80;99.90
19966;DHT22;10144;50.874;4.762;2022-12-10T15:14:26;1.50;99.90
19966;DHT22;10144;50.874;4.762;2022-12-10T15:16:52;1.40;99.90
19966;DHT22;10144;50.874;4.762;2022-12-10T15:22:16;1.30;99.90
19966;DHT22;10144;50.874;4.762;2022-12-10T15:24:43;1.40;99.90
19966;DHT22;10144;50.874;4.762;2022-12-10T15:27:20;1.50;99.90
19966;DHT22;10144;50.874;4.762;2022-12-10T15:29:46;1.50;99.90
19966;DHT22;10144;50.874;4.762;2022-12-10T15:32:14;1.40;99.90
19966;DHT22;10144;50.874;4.762;2022-12-10T15:34:46;1.40;99.90
19966;DHT22;10144;50.874;4.762;2022-12-10T15:37:39;1.40;99.90
19966;DHT22;10144;50.874;4.762;2022-12-10T15:40:07;1.50;99.90
19966;DHT22;10144;50.874;4.762;2022-12-10T15:42:45;1.40;99.90
19966;DHT22;10144;50.874;4.762;2022-12-10T15:45:26;1.50;99.90
19966;DHT22;10144;50.874;4.762;2022-12-10T15:47:57;1.40;99.90
19966;DHT22;10144;50.874;4.762;2022-12-10T15:50:24;1.60;99.90
19966;DHT22;10144;50.874;4.762;2022-12-10T15:52:50;1.60;99.90
19966;DHT22;10144;50.874;4.762;2022-12-10T15:55:16;1.70;99.90
19966;DHT22;10144;50.874;4.762;2022-12-10T15:57:43;1.60;99.90
19966;DHT22;10144;50.874;4.762;2022-12-10T16:03:00;1.60;99.90
19966;DHT22;10144;50.874;4.762;2022-12-10T16:05:33;1.60;99.90
19966;DHT22;10144;50.874;4.762;2022-12-10T16:08:06;1.70;99.90
19966;DHT22;10144;50.874;4.762;2022-12-10T16:10:32;1.70;99.90
19966;DHT22;10144;50.874;4.762;2022-12-10T16:13:09;1.80;99.90
19966;DHT22;10144;50.874;4.762;2022-12-10T16:15:45;1.80;99.90
19966;DHT22;10144;50.874;4.762;2022-12-10T16:18:11;1.70;99.90
19966;DHT22;10144;50.874;4.762;2022-12-10T16:20:37;1.60;99.90
19966;DHT22;10144;50.874;4.762;2022-12-10T16:23:03;1.90;99.90
19966;DHT22;10144;50.874;4.762;2022-12-10T16:25:32;1.90;99.90
19966;DHT22;10144;50.874;4.762;2022-12-10T16:27:58;1.90;99.90
19966;DHT22;10144;50.874;4.762;2022-12-10T16:30:29;2.00;99.90
19966;DHT22;10144;50.874;4.762;2022-12-10T16:32:57;1.90;99.90
19966;DHT22;10144;50.874;4.762;2022-12-10T16:35:23;1.80;99.90
19966;DHT22;10144;50.874;4.762;2022-12-10T16:37:49;1.70;99.90
19966;DHT22;10144;50.874;4.762;2022-12-10T16:40:21;1.70;99.90
19966;DHT22;10144;50.874;4.762;2022-12-10T16:42:48;1.70;99.90
19966;DHT22;10144;50.874;4.762;2022-12-10T16:47:43;1.90;99.90
19966;DHT22;10144;50.874;4.762;2022-12-10T16:50:09;2.20;99.90
19966;DHT22;10144;50.874;4.762;2022-12-10T16:52:35;2.10;99.90
19966;DHT22;10144;50.874;4.762;2022-12-10T16:55:00;2.00;99.90
19966;DHT22;10144;50.874;4.762;2022-12-10T16:57:28;1.90;99.90
19966;DHT22;10144;50.874;4.762;2022-12-10T16:59:59;1.80;99.90
19966;DHT22;10144;50.874;4.762;2022-12-10T17:02:25;1.80;99.90
19966;DHT22;10144;50.874;4.762;2022-12-10T17:04:52;1.90;99.90
19966;DHT22;10144;50.874;4.762;2022-12-10T17:07:17;1.80;99.90
19966;DHT22;10144;50.874;4.762;2022-12-10T17:09:44;1.70;99.90
19966;DHT22;10144;50.874;4.762;2022-12-10T17:12:09;1.70;99.90
19966;DHT22;10144;50.874;4.762;2022-12-10T17:14:40;1.70;99.90
19966;DHT22;10144;50.874;4.762;2022-12-10T17:17:06;1.70;99.90
19966;DHT22;10144;50.874;4.762;2022-12-10T17:19:38;1.80;99.90
19966;DHT22;10144;50.874;4.762;2022-12-10T17:22:06;1.90;99.90
19966;DHT22;10144;50.874;4.762;2022-12-10T17:24:33;1.70;99.90
19966;DHT22;10144;50.874;4.762;2022-12-10T17:27:07;1.70;99.90
19966;DHT22;10144;50.874;4.762;2022-12-10T17:29:38;1.60;99.90
19966;DHT22;10144;50.874;4.762;2022-12-10T17:32:06;1.70;99.90
19966;DHT22;10144;50.874;4.762;2022-12-10T17:34:32;1.40;99.90
19966;DHT22;10144;50.874;4.762;2022-12-10T17:36:57;1.40;99.90
19966;DHT22;10144;50.874;4.762;2022-12-10T17:39:23;1.50;99.90
19966;DHT22;10144;50.874;4.762;2022-12-10T17:41:51;1.40;99.90
19966;DHT22;10144;50.874;4.762;2022-12-10T17:44:16;1.30;99.90
19966;DHT22;10144;50.874;4.762;2022-12-10T17:46:42;1.10;99.90
19966;DHT22;10144;50.874;4.762;2022-12-10T17:49:12;1.10;99.90
19966;DHT22;10144;50.874;4.762;2022-12-10T17:51:38;1.10;99.90
19966;DHT22;10144;50.874;4.762;2022-12-10T17:54:03;1.10;99.90